Talmar, Pennsylvania
Current Conditions -  °F | °C
As of 2:55 AM on Thursday 29 Jan 2015 (Local Time) from KHZL Reporting Station
Clear Clear  
Wind Chill:   Ceiling: Unl
Heat Index:   Visibility: 10mi
Dew Point:   Wind: 0mph
Humidity: 85%   Direction: NA
Pressure: 30.25"   Gusts: NA
Location:  41.2534°N, 76.3299°W
Report Text: KHZL 290755Z AUTO 00000KT 10SM CLR M13/M15 A3025 RMK AO2
Loading
Personal Weather Stations






























Interactive Weather Map New forecast layout! Learn more

10-Day Weather Forecast

Advertisements
Track Severe Weather on mobile